sensor_id;sensor_type;location;lat;lon;timestamp;temperature;humidity
3332;DHT22;1678;50.94845400;5.30809100;2022-12-10T00:01:41;0.30;99.90
3332;DHT22;1678;50.94845400;5.30809100;2022-12-10T00:04:09;0.20;99.90
3332;DHT22;1678;50.94845400;5.30809100;2022-12-10T00:06:38;0.20;99.90
3332;DHT22;1678;50.94845400;5.30809100;2022-12-10T00:09:09;0.10;99.90
3332;DHT22;1678;50.94845400;5.30809100;2022-12-10T00:11:38;0.10;99.90
3332;DHT22;1678;50.94845400;5.30809100;2022-12-10T00:14:08;0.00;99.90
3332;DHT22;1678;50.94845400;5.30809100;2022-12-10T00:16:37;0.00;99.90
3332;DHT22;1678;50.94845400;5.30809100;2022-12-10T00:19:05;0.00;99.90
3332;DHT22;1678;50.94845400;5.30809100;2022-12-10T00:21:35;0.00;99.90
3332;DHT22;1678;50.94845400;5.30809100;2022-12-10T00:24:04;-0.10;99.90
3332;DHT22;1678;50.94845400;5.30809100;2022-12-10T00:26:35;-0.10;99.90
3332;DHT22;1678;50.94845400;5.30809100;2022-12-10T00:29:06;-0.10;99.90
3332;DHT22;1678;50.94845400;5.30809100;2022-12-10T00:31:37;0.00;99.90
3332;DHT22;1678;50.94845400;5.30809100;2022-12-10T00:34:07;0.10;99.90
3332;DHT22;1678;50.94845400;5.30809100;2022-12-10T00:36:37;0.10;99.90
3332;DHT22;1678;50.94845400;5.30809100;2022-12-10T00:39:06;0.10;99.90
3332;DHT22;1678;50.94845400;5.30809100;2022-12-10T00:41:34;0.10;99.90
3332;DHT22;1678;50.94845400;5.30809100;2022-12-10T00:44:02;0.00;99.90
3332;DHT22;1678;50.94845400;5.30809100;2022-12-10T00:46:30;-0.10;99.90
3332;DHT22;1678;50.94845400;5.30809100;2022-12-10T00:49:00;-0.10;99.90
3332;DHT22;1678;50.94845400;5.30809100;2022-12-10T00:51:28;-0.10;99.90
3332;DHT22;1678;50.94845400;5.30809100;2022-12-10T00:53:58;-0.10;99.90
3332;DHT22;1678;50.94845400;5.30809100;2022-12-10T00:56:28;0.00;99.90
3332;DHT22;1678;50.94845400;5.30809100;2022-12-10T00:58:56;0.10;99.90
3332;DHT22;1678;50.94845400;5.30809100;2022-12-10T01:01:27;0.10;99.90
3332;DHT22;1678;50.94845400;5.30809100;2022-12-10T01:03:57;0.20;99.90
3332;DHT22;1678;50.94845400;5.30809100;2022-12-10T01:06:30;0.20;99.90
3332;DHT22;1678;50.94845400;5.30809100;2022-12-10T01:09:00;0.20;99.90
3332;DHT22;1678;50.94845400;5.30809100;2022-12-10T01:11:33;0.20;99.90
3332;DHT22;1678;50.94845400;5.30809100;2022-12-10T01:14:02;0.20;99.90
3332;DHT22;1678;50.94845400;5.30809100;2022-12-10T01:16:30;0.20;99.90
3332;DHT22;1678;50.94845400;5.30809100;2022-12-10T01:18:59;0.20;99.90
3332;DHT22;1678;50.94845400;5.30809100;2022-12-10T01:21:29;0.20;99.90
3332;DHT22;1678;50.94845400;5.30809100;2022-12-10T01:23:58;0.20;99.90
3332;DHT22;1678;50.94845400;5.30809100;2022-12-10T01:26:27;0.20;99.90
3332;DHT22;1678;50.94845400;5.30809100;2022-12-10T01:28:56;0.20;99.90
3332;DHT22;1678;50.94845400;5.30809100;2022-12-10T01:31:27;0.20;99.90
3332;DHT22;1678;50.94845400;5.30809100;2022-12-10T01:33:56;0.30;99.90
3332;DHT22;1678;50.94845400;5.30809100;2022-12-10T01:36:28;0.30;99.90
3332;DHT22;1678;50.94845400;5.30809100;2022-12-10T01:38:56;0.20;99.90
3332;DHT22;1678;50.94845400;5.30809100;2022-12-10T01:41:27;0.20;99.90
3332;DHT22;1678;50.94845400;5.30809100;2022-12-10T01:43:57;0.20;99.90
3332;DHT22;1678;50.94845400;5.30809100;2022-12-10T01:46:28;0.20;99.90
3332;DHT22;1678;50.94845400;5.30809100;2022-12-10T01:48:56;0.10;99.90
3332;DHT22;1678;50.94845400;5.30809100;2022-12-10T01:51:29;0.10;99.90
3332;DHT22;1678;50.94845400;5.30809100;2022-12-10T01:53:57;0.10;99.90
3332;DHT22;1678;50.94845400;5.30809100;2022-12-10T01:56:26;0.00;99.90
3332;DHT22;1678;50.94845400;5.30809100;2022-12-10T01:58:56;0.00;99.90
3332;DHT22;1678;50.94845400;5.30809100;2022-12-10T02:01:28;0.10;99.90
3332;DHT22;1678;50.94845400;5.30809100;2022-12-10T02:04:08;0.00;99.90
3332;DHT22;1678;50.94845400;5.30809100;2022-12-10T02:06:45;-0.10;99.90
3332;DHT22;1678;50.94845400;5.30809100;2022-12-10T02:09:27;0.00;99.90
3332;DHT22;1678;50.94845400;5.30809100;2022-12-10T02:12:09;0.00;99.90
3332;DHT22;1678;50.94845400;5.30809100;2022-12-10T02:14:44;0.00;99.90
3332;DHT22;1678;50.94845400;5.30809100;2022-12-10T02:17:19;0.10;99.90
3332;DHT22;1678;50.94845400;5.30809100;2022-12-10T02:19:59;0.10;99.90
3332;DHT22;1678;50.94845400;5.30809100;2022-12-10T02:22:33;0.10;99.90
3332;DHT22;1678;50.94845400;5.30809100;2022-12-10T02:25:04;0.10;99.90
3332;DHT22;1678;50.94845400;5.30809100;2022-12-10T02:27:40;0.20;99.90
3332;DHT22;1678;50.94845400;5.30809100;2022-12-10T02:30:12;0.20;99.90
3332;DHT22;1678;50.94845400;5.30809100;2022-12-10T02:32:41;0.20;99.90
3332;DHT22;1678;50.94845400;5.30809100;2022-12-10T02:35:14;0.20;99.90
3332;DHT22;1678;50.94845400;5.30809100;2022-12-10T02:37:47;0.10;99.90
3332;DHT22;1678;50.94845400;5.30809100;2022-12-10T02:40:19;0.10;99.90
3332;DHT22;1678;50.94845400;5.30809100;2022-12-10T02:42:50;0.10;99.90
3332;DHT22;1678;50.94845400;5.30809100;2022-12-10T02:45:22;0.00;99.90
3332;DHT22;1678;50.94845400;5.30809100;2022-12-10T02:47:53;0.00;99.90
3332;DHT22;1678;50.94845400;5.30809100;2022-12-10T02:50:22;-0.10;99.90
3332;DHT22;1678;50.94845400;5.30809100;2022-12-10T02:52:51;-0.10;99.90
3332;DHT22;1678;50.94845400;5.30809100;2022-12-10T02:55:19;-0.10;99.90
3332;DHT22;1678;50.94845400;5.30809100;2022-12-10T02:57:59;-0.10;99.90
3332;DHT22;1678;50.94845400;5.30809100;2022-12-10T03:00:32;-0.10;99.90
3332;DHT22;1678;50.94845400;5.30809100;2022-12-10T03:03:15;-0.10;99.90
3332;DHT22;1678;50.94845400;5.30809100;2022-12-10T03:05:48;-0.20;99.90
3332;DHT22;1678;50.94845400;5.30809100;2022-12-10T03:08:23;-0.20;99.90
3332;DHT22;1678;50.94845400;5.30809100;2022-12-10T03:10:57;-0.20;99.90
3332;DHT22;1678;50.94845400;5.30809100;2022-12-10T03:13:29;0.00;99.90
3332;DHT22;1678;50.94845400;5.30809100;2022-12-10T03:15:59;0.00;99.90
3332;DHT22;1678;50.94845400;5.30809100;2022-12-10T03:18:29;0.00;99.90
3332;DHT22;1678;50.94845400;5.30809100;2022-12-10T03:21:02;-0.10;99.90
3332;DHT22;1678;50.94845400;5.30809100;2022-12-10T03:23:31;-0.10;99.90
3332;DHT22;1678;50.94845400;5.30809100;2022-12-10T03:26:02;-0.10;99.90
3332;DHT22;1678;50.94845400;5.30809100;2022-12-10T03:28:32;-0.10;99.90
3332;DHT22;1678;50.94845400;5.30809100;2022-12-10T03:31:03;-0.10;99.90
3332;DHT22;1678;50.94845400;5.30809100;2022-12-10T03:33:32;0.00;99.90
3332;DHT22;1678;50.94845400;5.30809100;2022-12-10T03:36:01;0.00;99.90
3332;DHT22;1678;50.94845400;5.30809100;2022-12-10T03:38:29;0.10;99.90
3332;DHT22;1678;50.94845400;5.30809100;2022-12-10T03:40:57;0.10;99.90
3332;DHT22;1678;50.94845400;5.30809100;2022-12-10T03:43:25;0.00;99.90
3332;DHT22;1678;50.94845400;5.30809100;2022-12-10T03:45:53;0.00;99.90
3332;DHT22;1678;50.94845400;5.30809100;2022-12-10T03:48:23;0.00;99.90
3332;DHT22;1678;50.94845400;5.30809100;2022-12-10T03:50:51;-0.10;99.90
3332;DHT22;1678;50.94845400;5.30809100;2022-12-10T03:53:19;-0.10;99.90
3332;DHT22;1678;50.94845400;5.30809100;2022-12-10T03:55:47;-0.10;99.90
3332;DHT22;1678;50.94845400;5.30809100;2022-12-10T03:58:15;-0.10;99.90
3332;DHT22;1678;50.94845400;5.30809100;2022-12-10T04:00:46;-0.10;99.90
3332;DHT22;1678;50.94845400;5.30809100;2022-12-10T04:03:14;-0.10;99.90
3332;DHT22;1678;50.94845400;5.30809100;2022-12-10T04:05:44;-0.10;99.90
3332;DHT22;1678;50.94845400;5.30809100;2022-12-10T04:08:12;-0.10;99.90
3332;DHT22;1678;50.94845400;5.30809100;2022-12-10T04:10:40;-0.10;99.90
3332;DHT22;1678;50.94845400;5.30809100;2022-12-10T04:13:08;0.00;99.90
3332;DHT22;1678;50.94845400;5.30809100;2022-12-10T04:15:56;0.10;99.90
3332;DHT22;1678;50.94845400;5.30809100;2022-12-10T04:18:41;0.00;99.90
3332;DHT22;1678;50.94845400;5.30809100;2022-12-10T04:21:10;-0.10;99.90
3332;DHT22;1678;50.94845400;5.30809100;2022-12-10T04:23:56;0.00;99.90
3332;DHT22;1678;50.94845400;5.30809100;2022-12-10T04:26:41;0.10;99.90
3332;DHT22;1678;50.94845400;5.30809100;2022-12-10T04:29:23;0.10;99.90
3332;DHT22;1678;50.94845400;5.30809100;2022-12-10T04:31:52;0.10;99.90
3332;DHT22;1678;50.94845400;5.30809100;2022-12-10T04:34:21;0.00;99.90
3332;DHT22;1678;50.94845400;5.30809100;2022-12-10T04:36:50;0.00;99.90
3332;DHT22;1678;50.94845400;5.30809100;2022-12-10T04:39:19;0.00;99.90
3332;DHT22;1678;50.94845400;5.30809100;2022-12-10T04:41:48;-0.10;99.90
3332;DHT22;1678;50.94845400;5.30809100;2022-12-10T04:44:17;-0.10;99.90
3332;DHT22;1678;50.94845400;5.30809100;2022-12-10T04:46:45;-0.10;99.90
3332;DHT22;1678;50.94845400;5.30809100;2022-12-10T04:49:14;-0.10;99.90
3332;DHT22;1678;50.94845400;5.30809100;2022-12-10T04:51:42;-0.10;99.90
3332;DHT22;1678;50.94845400;5.30809100;2022-12-10T04:54:12;0.00;99.90
3332;DHT22;1678;50.94845400;5.30809100;2022-12-10T04:56:41;0.00;99.90
3332;DHT22;1678;50.94845400;5.30809100;2022-12-10T04:59:09;0.00;99.90
3332;DHT22;1678;50.94845400;5.30809100;2022-12-10T05:01:38;0.00;99.90
3332;DHT22;1678;50.94845400;5.30809100;2022-12-10T05:04:09;0.00;99.90
3332;DHT22;1678;50.94845400;5.30809100;2022-12-10T05:06:37;0.00;99.90
3332;DHT22;1678;50.94845400;5.30809100;2022-12-10T05:09:05;0.00;99.90
3332;DHT22;1678;50.94845400;5.30809100;2022-12-10T05:11:35;0.00;99.90
3332;DHT22;1678;50.94845400;5.30809100;2022-12-10T05:14:04;0.00;99.90
3332;DHT22;1678;50.94845400;5.30809100;2022-12-10T05:16:33;-0.10;99.90
3332;DHT22;1678;50.94845400;5.30809100;2022-12-10T05:19:01;-0.10;99.90
3332;DHT22;1678;50.94845400;5.30809100;2022-12-10T05:21:30;-0.10;99.90
3332;DHT22;1678;50.94845400;5.30809100;2022-12-10T05:24:12;-0.10;99.90
3332;DHT22;1678;50.94845400;5.30809100;2022-12-10T05:26:41;-0.10;99.90
3332;DHT22;1678;50.94845400;5.30809100;2022-12-10T05:29:10;0.00;99.90
3332;DHT22;1678;50.94845400;5.30809100;2022-12-10T05:31:39;0.10;99.90
3332;DHT22;1678;50.94845400;5.30809100;2022-12-10T05:34:09;0.10;99.90
3332;DHT22;1678;50.94845400;5.30809100;2022-12-10T05:36:37;0.00;99.90
3332;DHT22;1678;50.94845400;5.30809100;2022-12-10T05:39:05;0.00;99.90
3332;DHT22;1678;50.94845400;5.30809100;2022-12-10T05:41:35;0.10;99.90
3332;DHT22;1678;50.94845400;5.30809100;2022-12-10T05:44:06;0.20;99.90
3332;DHT22;1678;50.94845400;5.30809100;2022-12-10T05:46:35;0.10;99.90
3332;DHT22;1678;50.94845400;5.30809100;2022-12-10T05:49:05;0.10;99.90
3332;DHT22;1678;50.94845400;5.30809100;2022-12-10T05:51:35;0.10;99.90
3332;DHT22;1678;50.94845400;5.30809100;2022-12-10T05:54:05;0.00;99.90
3332;DHT22;1678;50.94845400;5.30809100;2022-12-10T05:56:34;0.00;99.90
3332;DHT22;1678;50.94845400;5.30809100;2022-12-10T05:59:05;0.00;99.90
3332;DHT22;1678;50.94845400;5.30809100;2022-12-10T06:01:42;0.20;99.90
3332;DHT22;1678;50.94845400;5.30809100;2022-12-10T06:04:10;0.40;99.90
3332;DHT22;1678;50.94845400;5.30809100;2022-12-10T06:06:39;0.20;99.90
3332;DHT22;1678;50.94845400;5.30809100;2022-12-10T06:09:11;0.20;99.90
3332;DHT22;1678;50.94845400;5.30809100;2022-12-10T06:11:40;0.20;99.90
3332;DHT22;1678;50.94845400;5.30809100;2022-12-10T06:14:10;0.10;99.90
3332;DHT22;1678;50.94845400;5.30809100;2022-12-10T06:16:39;0.00;99.90
3332;DHT22;1678;50.94845400;5.30809100;2022-12-10T06:19:08;0.00;99.90
3332;DHT22;1678;50.94845400;5.30809100;2022-12-10T06:21:37;0.00;99.90
3332;DHT22;1678;50.94845400;5.30809100;2022-12-10T06:24:06;0.00;99.90
3332;DHT22;1678;50.94845400;5.30809100;2022-12-10T06:26:34;0.00;99.90
3332;DHT22;1678;50.94845400;5.30809100;2022-12-10T06:29:02;0.10;99.90
3332;DHT22;1678;50.94845400;5.30809100;2022-12-10T06:31:32;0.10;99.90
3332;DHT22;1678;50.94845400;5.30809100;2022-12-10T06:34:01;0.10;99.90
3332;DHT22;1678;50.94845400;5.30809100;2022-12-10T06:36:29;0.00;99.90
3332;DHT22;1678;50.94845400;5.30809100;2022-12-10T06:38:57;0.00;99.90
3332;DHT22;1678;50.94845400;5.30809100;2022-12-10T06:41:25;0.10;99.90
3332;DHT22;1678;50.94845400;5.30809100;2022-12-10T06:43:54;0.10;99.90
3332;DHT22;1678;50.94845400;5.30809100;2022-12-10T06:46:25;0.20;99.90
3332;DHT22;1678;50.94845400;5.30809100;2022-12-10T06:48:55;0.20;99.90
3332;DHT22;1678;50.94845400;5.30809100;2022-12-10T06:51:24;0.10;99.90
3332;DHT22;1678;50.94845400;5.30809100;2022-12-10T06:53:52;0.20;99.90
3332;DHT22;1678;50.94845400;5.30809100;2022-12-10T06:56:20;0.10;99.90
3332;DHT22;1678;50.94845400;5.30809100;2022-12-10T06:58:48;0.20;99.90
3332;DHT22;1678;50.94845400;5.30809100;2022-12-10T07:01:18;0.20;99.90
3332;DHT22;1678;50.94845400;5.30809100;2022-12-10T07:03:48;0.30;99.90
3332;DHT22;1678;50.94845400;5.30809100;2022-12-10T07:06:18;0.40;99.90
3332;DHT22;1678;50.94845400;5.30809100;2022-12-10T07:08:47;0.30;99.90
3332;DHT22;1678;50.94845400;5.30809100;2022-12-10T07:11:16;0.20;99.90
3332;DHT22;1678;50.94845400;5.30809100;2022-12-10T07:13:45;0.10;99.90
3332;DHT22;1678;50.94845400;5.30809100;2022-12-10T07:16:15;0.10;99.90
3332;DHT22;1678;50.94845400;5.30809100;2022-12-10T07:18:44;0.20;99.90
3332;DHT22;1678;50.94845400;5.30809100;2022-12-10T07:21:21;0.20;99.90
3332;DHT22;1678;50.94845400;5.30809100;2022-12-10T07:23:50;0.20;99.90
3332;DHT22;1678;50.94845400;5.30809100;2022-12-10T07:26:18;0.10;99.90
3332;DHT22;1678;50.94845400;5.30809100;2022-12-10T07:28:46;0.00;99.90
3332;DHT22;1678;50.94845400;5.30809100;2022-12-10T07:31:20;-0.10;99.90
3332;DHT22;1678;50.94845400;5.30809100;2022-12-10T07:33:49;0.00;99.90
3332;DHT22;1678;50.94845400;5.30809100;2022-12-10T07:36:20;-0.10;99.90
3332;DHT22;1678;50.94845400;5.30809100;2022-12-10T07:38:49;-0.20;99.90
3332;DHT22;1678;50.94845400;5.30809100;2022-12-10T07:41:18;-0.10;99.90
3332;DHT22;1678;50.94845400;5.30809100;2022-12-10T07:43:47;-0.20;99.90
3332;DHT22;1678;50.94845400;5.30809100;2022-12-10T07:46:17;0.00;99.90
3332;DHT22;1678;50.94845400;5.30809100;2022-12-10T07:48:47;0.00;99.90
3332;DHT22;1678;50.94845400;5.30809100;2022-12-10T07:51:17;0.00;99.90
3332;DHT22;1678;50.94845400;5.30809100;2022-12-10T07:53:47;0.00;99.90
3332;DHT22;1678;50.94845400;5.30809100;2022-12-10T07:56:15;-0.10;99.90
3332;DHT22;1678;50.94845400;5.30809100;2022-12-10T07:58:45;0.00;99.90
3332;DHT22;1678;50.94845400;5.30809100;2022-12-10T08:01:14;0.00;99.90
3332;DHT22;1678;50.94845400;5.30809100;2022-12-10T08:03:43;-0.10;99.90
3332;DHT22;1678;50.94845400;5.30809100;2022-12-10T08:06:14;-0.10;99.90
3332;DHT22;1678;50.94845400;5.30809100;2022-12-10T08:08:43;-0.10;99.90
3332;DHT22;1678;50.94845400;5.30809100;2022-12-10T08:11:14;0.00;99.90
3332;DHT22;1678;50.94845400;5.30809100;2022-12-10T08:13:43;0.10;99.90
3332;DHT22;1678;50.94845400;5.30809100;2022-12-10T08:16:14;0.00;99.90
3332;DHT22;1678;50.94845400;5.30809100;2022-12-10T08:18:43;-0.10;99.90
3332;DHT22;1678;50.94845400;5.30809100;2022-12-10T08:21:14;0.00;99.90
3332;DHT22;1678;50.94845400;5.30809100;2022-12-10T08:23:43;0.10;99.90
3332;DHT22;1678;50.94845400;5.30809100;2022-12-10T08:26:16;0.10;99.90
3332;DHT22;1678;50.94845400;5.30809100;2022-12-10T08:28:44;0.20;99.90
3332;DHT22;1678;50.94845400;5.30809100;2022-12-10T08:31:14;0.10;99.90
3332;DHT22;1678;50.94845400;5.30809100;2022-12-10T08:33:42;0.20;99.90
3332;DHT22;1678;50.94845400;5.30809100;2022-12-10T08:36:12;0.30;99.90
3332;DHT22;1678;50.94845400;5.30809100;2022-12-10T08:38:41;0.30;99.90
3332;DHT22;1678;50.94845400;5.30809100;2022-12-10T08:41:11;0.40;99.90
3332;DHT22;1678;50.94845400;5.30809100;2022-12-10T08:43:41;0.50;99.90
3332;DHT22;1678;50.94845400;5.30809100;2022-12-10T08:46:11;0.50;99.90
3332;DHT22;1678;50.94845400;5.30809100;2022-12-10T08:48:41;0.50;99.90
3332;DHT22;1678;50.94845400;5.30809100;2022-12-10T08:51:11;0.50;99.90
3332;DHT22;1678;50.94845400;5.30809100;2022-12-10T08:53:40;0.40;99.90
3332;DHT22;1678;50.94845400;5.30809100;2022-12-10T08:56:08;0.40;99.90
3332;DHT22;1678;50.94845400;5.30809100;2022-12-10T08:58:36;0.30;99.90
3332;DHT22;1678;50.94845400;5.30809100;2022-12-10T09:01:10;0.20;99.90
3332;DHT22;1678;50.94845400;5.30809100;2022-12-10T09:03:39;0.20;99.90
3332;DHT22;1678;50.94845400;5.30809100;2022-12-10T09:06:09;0.10;99.90
3332;DHT22;1678;50.94845400;5.30809100;2022-12-10T09:08:37;0.10;99.90
3332;DHT22;1678;50.94845400;5.30809100;2022-12-10T09:11:07;0.20;99.90
3332;DHT22;1678;50.94845400;5.30809100;2022-12-10T09:13:36;0.30;99.90
3332;DHT22;1678;50.94845400;5.30809100;2022-12-10T09:16:05;0.40;99.90
3332;DHT22;1678;50.94845400;5.30809100;2022-12-10T09:18:37;0.40;99.90
3332;DHT22;1678;50.94845400;5.30809100;2022-12-10T09:21:06;0.40;99.90
3332;DHT22;1678;50.94845400;5.30809100;2022-12-10T09:23:34;0.40;99.90
3332;DHT22;1678;50.94845400;5.30809100;2022-12-10T09:26:05;0.40;99.90
3332;DHT22;1678;50.94845400;5.30809100;2022-12-10T09:28:35;0.40;99.90
3332;DHT22;1678;50.94845400;5.30809100;2022-12-10T09:31:04;0.50;99.90
3332;DHT22;1678;50.94845400;5.30809100;2022-12-10T09:33:42;0.50;99.90
3332;DHT22;1678;50.94845400;5.30809100;2022-12-10T09:36:12;0.50;99.90
3332;DHT22;1678;50.94845400;5.30809100;2022-12-10T09:38:42;0.50;99.90
3332;DHT22;1678;50.94845400;5.30809100;2022-12-10T09:41:40;0.50;99.90
3332;DHT22;1678;50.94845400;5.30809100;2022-12-10T09:44:15;0.50;99.90
3332;DHT22;1678;50.94845400;5.30809100;2022-12-10T09:46:52;0.40;99.90
3332;DHT22;1678;50.94845400;5.30809100;2022-12-10T09:49:32;0.50;99.90
3332;DHT22;1678;50.94845400;5.30809100;2022-12-10T09:52:06;0.40;99.90
3332;DHT22;1678;50.94845400;5.30809100;2022-12-10T09:54:41;0.40;99.90
3332;DHT22;1678;50.94845400;5.30809100;2022-12-10T09:57:19;0.40;99.90
3332;DHT22;1678;50.94845400;5.30809100;2022-12-10T09:59:49;0.40;99.90
3332;DHT22;1678;50.94845400;5.30809100;2022-12-10T10:02:22;0.50;99.90
3332;DHT22;1678;50.94845400;5.30809100;2022-12-10T10:04:58;0.50;99.90
3332;DHT22;1678;50.94845400;5.30809100;2022-12-10T10:07:30;0.50;99.90
3332;DHT22;1678;50.94845400;5.30809100;2022-12-10T10:10:01;0.60;99.90
3332;DHT22;1678;50.94845400;5.30809100;2022-12-10T10:12:32;0.70;99.90
3332;DHT22;1678;50.94845400;5.30809100;2022-12-10T10:15:12;0.60;99.90
3332;DHT22;1678;50.94845400;5.30809100;2022-12-10T10:17:41;0.60;99.90
3332;DHT22;1678;50.94845400;5.30809100;2022-12-10T10:20:14;0.60;99.90
3332;DHT22;1678;50.94845400;5.30809100;2022-12-10T10:22:42;0.70;99.90
3332;DHT22;1678;50.94845400;5.30809100;2022-12-10T10:25:13;0.60;99.90
3332;DHT22;1678;50.94845400;5.30809100;2022-12-10T10:27:42;0.50;99.90
3332;DHT22;1678;50.94845400;5.30809100;2022-12-10T10:30:15;0.60;99.90
3332;DHT22;1678;50.94845400;5.30809100;2022-12-10T10:32:47;0.60;99.90
3332;DHT22;1678;50.94845400;5.30809100;2022-12-10T10:35:29;0.40;99.90
3332;DHT22;1678;50.94845400;5.30809100;2022-12-10T10:38:00;0.50;99.90
3332;DHT22;1678;50.94845400;5.30809100;2022-12-10T10:40:32;0.70;99.90
3332;DHT22;1678;50.94845400;5.30809100;2022-12-10T10:43:01;0.70;99.90
3332;DHT22;1678;50.94845400;5.30809100;2022-12-10T10:45:40;0.80;99.90
3332;DHT22;1678;50.94845400;5.30809100;2022-12-10T10:48:11;0.90;99.90
3332;DHT22;1678;50.94845400;5.30809100;2022-12-10T10:50:43;1.00;99.90
3332;DHT22;1678;50.94845400;5.30809100;2022-12-10T10:53:27;0.90;99.90
3332;DHT22;1678;50.94845400;5.30809100;2022-12-10T10:55:59;0.80;99.90
3332;DHT22;1678;50.94845400;5.30809100;2022-12-10T10:58:29;0.70;99.90
3332;DHT22;1678;50.94845400;5.30809100;2022-12-10T11:00:59;0.70;99.90
3332;DHT22;1678;50.94845400;5.30809100;2022-12-10T11:03:29;0.70;99.90
3332;DHT22;1678;50.94845400;5.30809100;2022-12-10T11:06:00;0.70;99.90
3332;DHT22;1678;50.94845400;5.30809100;2022-12-10T11:08:30;0.60;99.90
3332;DHT22;1678;50.94845400;5.30809100;2022-12-10T11:11:03;0.70;99.90
3332;DHT22;1678;50.94845400;5.30809100;2022-12-10T11:13:32;0.60;99.90
3332;DHT22;1678;50.94845400;5.30809100;2022-12-10T11:16:11;0.70;99.90
3332;DHT22;1678;50.94845400;5.30809100;2022-12-10T11:18:40;0.70;99.90
3332;DHT22;1678;50.94845400;5.30809100;2022-12-10T11:21:19;0.50;99.90
3332;DHT22;1678;50.94845400;5.30809100;2022-12-10T11:23:51;0.50;99.90
3332;DHT22;1678;50.94845400;5.30809100;2022-12-10T11:26:43;0.40;99.90
3332;DHT22;1678;50.94845400;5.30809100;2022-12-10T11:29:33;0.50;99.90
3332;DHT22;1678;50.94845400;5.30809100;2022-12-10T11:35:12;0.50;99.90
3332;DHT22;1678;50.94845400;5.30809100;2022-12-10T11:37:51;0.60;99.90
3332;DHT22;1678;50.94845400;5.30809100;2022-12-10T11:40:34;0.60;99.90
3332;DHT22;1678;50.94845400;5.30809100;2022-12-10T11:43:26;0.50;99.90
3332;DHT22;1678;50.94845400;5.30809100;2022-12-10T11:46:07;0.50;99.90
3332;DHT22;1678;50.94845400;5.30809100;2022-12-10T11:48:50;0.60;99.90
3332;DHT22;1678;50.94845400;5.30809100;2022-12-10T11:51:26;0.70;99.90
3332;DHT22;1678;50.94845400;5.30809100;2022-12-10T11:54:07;0.80;99.90
3332;DHT22;1678;50.94845400;5.30809100;2022-12-10T11:56:42;0.80;99.90
3332;DHT22;1678;50.94845400;5.30809100;2022-12-10T11:59:23;0.80;99.90
3332;DHT22;1678;50.94845400;5.30809100;2022-12-10T12:02:31;0.70;99.90
3332;DHT22;1678;50.94845400;5.30809100;2022-12-10T12:05:24;0.60;99.90
3332;DHT22;1678;50.94845400;5.30809100;2022-12-10T12:08:01;0.70;99.90
3332;DHT22;1678;50.94845400;5.30809100;2022-12-10T12:13:28;0.70;99.90
3332;DHT22;1678;50.94845400;5.30809100;2022-12-10T12:16:03;0.80;99.90
3332;DHT22;1678;50.94845400;5.30809100;2022-12-10T12:18:39;0.70;99.90
3332;DHT22;1678;50.94845400;5.30809100;2022-12-10T12:21:11;0.80;99.90
3332;DHT22;1678;50.94845400;5.30809100;2022-12-10T12:23:49;0.80;99.90
3332;DHT22;1678;50.94845400;5.30809100;2022-12-10T12:26:25;0.80;99.90
3332;DHT22;1678;50.94845400;5.30809100;2022-12-10T12:28:59;0.80;99.90
3332;DHT22;1678;50.94845400;5.30809100;2022-12-10T12:31:32;0.80;99.90
3332;DHT22;1678;50.94845400;5.30809100;2022-12-10T12:34:05;1.00;99.90
3332;DHT22;1678;50.94845400;5.30809100;2022-12-10T12:36:38;1.10;99.90
3332;DHT22;1678;50.94845400;5.30809100;2022-12-10T12:39:16;0.90;99.90
3332;DHT22;1678;50.94845400;5.30809100;2022-12-10T12:41:55;0.80;99.90
3332;DHT22;1678;50.94845400;5.30809100;2022-12-10T12:44:34;0.70;99.90
3332;DHT22;1678;50.94845400;5.30809100;2022-12-10T12:47:19;0.60;99.90
3332;DHT22;1678;50.94845400;5.30809100;2022-12-10T12:49:50;0.70;99.90
3332;DHT22;1678;50.94845400;5.30809100;2022-12-10T12:52:26;0.80;99.90
3332;DHT22;1678;50.94845400;5.30809100;2022-12-10T12:55:02;1.00;99.90
3332;DHT22;1678;50.94845400;5.30809100;2022-12-10T12:57:39;1.00;99.90
3332;DHT22;1678;50.94845400;5.30809100;2022-12-10T13:00:12;0.90;99.90
3332;DHT22;1678;50.94845400;5.30809100;2022-12-10T13:02:57;0.90;99.90
3332;DHT22;1678;50.94845400;5.30809100;2022-12-10T13:05:28;0.90;99.90
3332;DHT22;1678;50.94845400;5.30809100;2022-12-10T13:08:28;0.90;99.90
3332;DHT22;1678;50.94845400;5.30809100;2022-12-10T13:11:15;0.80;99.90
3332;DHT22;1678;50.94845400;5.30809100;2022-12-10T13:14:13;1.00;99.90
3332;DHT22;1678;50.94845400;5.30809100;2022-12-10T13:16:58;1.00;99.90
3332;DHT22;1678;50.94845400;5.30809100;2022-12-10T13:19:29;1.00;99.90
3332;DHT22;1678;50.94845400;5.30809100;2022-12-10T13:22:07;1.10;99.90
3332;DHT22;1678;50.94845400;5.30809100;2022-12-10T13:25:06;1.20;99.90
3332;DHT22;1678;50.94845400;5.30809100;2022-12-10T13:27:37;1.00;99.90
3332;DHT22;1678;50.94845400;5.30809100;2022-12-10T13:30:32;1.00;99.90
3332;DHT22;1678;50.94845400;5.30809100;2022-12-10T13:33:14;1.00;99.90
3332;DHT22;1678;50.94845400;5.30809100;2022-12-10T13:35:55;1.00;99.90
3332;DHT22;1678;50.94845400;5.30809100;2022-12-10T13:38:26;1.00;99.90
3332;DHT22;1678;50.94845400;5.30809100;2022-12-10T13:41:00;1.10;99.90
3332;DHT22;1678;50.94845400;5.30809100;2022-12-10T13:43:55;1.10;99.90
3332;DHT22;1678;50.94845400;5.30809100;2022-12-10T13:46:55;1.20;99.90
3332;DHT22;1678;50.94845400;5.30809100;2022-12-10T13:49:24;1.20;99.90
3332;DHT22;1678;50.94845400;5.30809100;2022-12-10T13:52:03;1.20;99.90
3332;DHT22;1678;50.94845400;5.30809100;2022-12-10T13:58:02;1.10;99.90
3332;DHT22;1678;50.94845400;5.30809100;2022-12-10T14:00:39;1.10;99.90
3332;DHT22;1678;50.94845400;5.30809100;2022-12-10T14:06:16;1.10;99.90
3332;DHT22;1678;50.94845400;5.30809100;2022-12-10T14:08:57;1.10;99.90
3332;DHT22;1678;50.94845400;5.30809100;2022-12-10T14:11:29;1.00;99.90
3332;DHT22;1678;50.94845400;5.30809100;2022-12-10T14:14:05;0.90;99.90
3332;DHT22;1678;50.94845400;5.30809100;2022-12-10T14:16:34;0.90;99.90
3332;DHT22;1678;50.94845400;5.30809100;2022-12-10T14:19:05;0.90;99.90
3332;DHT22;1678;50.94845400;5.30809100;2022-12-10T14:21:37;0.90;99.90
3332;DHT22;1678;50.94845400;5.30809100;2022-12-10T14:24:11;0.90;99.90
3332;DHT22;1678;50.94845400;5.30809100;2022-12-10T14:26:57;1.00;99.90
3332;DHT22;1678;50.94845400;5.30809100;2022-12-10T14:29:25;0.90;99.90
3332;DHT22;1678;50.94845400;5.30809100;2022-12-10T14:31:55;0.80;99.90
3332;DHT22;1678;50.94845400;5.30809100;2022-12-10T14:34:26;0.90;99.90
3332;DHT22;1678;50.94845400;5.30809100;2022-12-10T14:37:00;0.80;99.90
3332;DHT22;1678;50.94845400;5.30809100;2022-12-10T14:39:31;0.80;99.90